createdAt,value
2018-05-14T00:01:42.840Z,16.81
2018-05-14T00:04:12.455Z,16.75
2018-05-14T00:06:42.088Z,16.72
2018-05-14T00:09:11.696Z,16.66
2018-05-14T00:11:41.371Z,16.61
2018-05-14T00:14:10.990Z,16.57
2018-05-14T00:16:40.599Z,16.56
2018-05-14T00:19:10.249Z,16.53
2018-05-14T00:21:39.868Z,16.54
2018-05-14T00:24:09.529Z,16.51
2018-05-14T00:26:39.152Z,16.47
2018-05-14T00:29:08.781Z,16.45
2018-05-14T00:31:38.394Z,16.44
2018-05-14T00:34:08.017Z,16.39
2018-05-14T00:36:37.688Z,16.35
2018-05-14T00:39:07.316Z,16.31
2018-05-14T00:41:36.971Z,16.25
2018-05-14T00:44:06.272Z,16.20
2018-05-14T00:46:35.979Z,16.17
2018-05-14T00:49:05.647Z,16.15
2018-05-14T00:51:35.297Z,16.11
2018-05-14T00:54:04.935Z,16.09
2018-05-14T00:56:34.567Z,16.06
2018-05-14T00:59:04.198Z,16.02
2018-05-14T01:01:33.567Z,16.00
2018-05-14T01:04:03.185Z,15.98
2018-05-14T01:06:32.832Z,15.97
2018-05-14T01:09:02.451Z,15.97
2018-05-14T01:11:31.797Z,15.94
2018-05-14T01:14:07.099Z,15.92
2018-05-14T01:16:42.848Z,15.88
2018-05-14T01:19:12.550Z,15.84
2018-05-14T01:21:42.179Z,15.83
2018-05-14T01:24:11.811Z,15.80
2018-05-14T01:26:41.541Z,15.77
2018-05-14T01:29:11.163Z,15.73
2018-05-14T01:31:40.847Z,15.70
2018-05-14T01:34:10.485Z,15.65
2018-05-14T01:36:40.106Z,15.61
2018-05-14T01:39:09.710Z,15.57
2018-05-14T01:41:39.336Z,15.52
2018-05-14T01:44:08.989Z,15.44
2018-05-14T01:46:38.610Z,15.42
2018-05-14T01:49:08.231Z,15.37
2018-05-14T01:51:37.864Z,15.35
2018-05-14T01:54:07.280Z,15.34
2018-05-14T01:56:36.947Z,15.30
2018-05-14T01:59:06.238Z,15.29
2018-05-14T02:01:35.858Z,15.23
2018-05-14T02:04:05.480Z,15.21
2018-05-14T02:06:35.101Z,15.15
2018-05-14T02:09:03.951Z,15.09
2018-05-14T02:11:33.566Z,15.04
2018-05-14T02:14:03.231Z,15.04
2018-05-14T02:16:32.859Z,15.03
2018-05-14T02:19:02.480Z,15.01
2018-05-14T02:21:32.124Z,14.97
2018-05-14T02:24:01.734Z,14.96
2018-05-14T02:26:31.363Z,14.94
2018-05-14T02:29:01.031Z,14.94
2018-05-14T02:31:30.660Z,14.93
2018-05-14T02:34:00.292Z,14.90
2018-05-14T02:36:29.922Z,14.85
2018-05-14T02:38:59.555Z,14.81
2018-05-14T02:41:29.216Z,14.76
2018-05-14T02:43:58.844Z,14.72
2018-05-14T02:46:28.469Z,14.67
2018-05-14T02:48:58.143Z,14.60
2018-05-14T02:51:27.768Z,14.55
2018-05-14T02:53:57.423Z,14.51
2018-05-14T02:56:27.088Z,14.49
2018-05-14T02:58:56.719Z,14.43
2018-05-14T03:01:26.373Z,14.36
2018-05-14T03:03:55.995Z,14.33
2018-05-14T03:06:25.670Z,14.29
2018-05-14T03:08:55.015Z,14.25
2018-05-14T03:11:24.645Z,14.21
2018-05-14T03:13:54.258Z,14.18
2018-05-14T03:16:23.894Z,14.13
2018-05-14T03:18:53.558Z,14.12
2018-05-14T03:21:23.179Z,14.09
2018-05-14T03:23:52.816Z,14.04
2018-05-14T03:26:22.205Z,14.02
2018-05-14T03:28:51.834Z,13.97
2018-05-14T03:31:21.495Z,13.95
2018-05-14T03:33:51.126Z,13.95
2018-05-14T03:36:20.761Z,13.93
2018-05-14T03:38:50.383Z,13.92
2018-05-14T03:41:20.022Z,13.91
2018-05-14T03:43:49.698Z,13.91
2018-05-14T03:46:19.317Z,13.89
2018-05-14T03:48:48.930Z,13.88
2018-05-14T03:51:18.554Z,13.89
2018-05-14T03:53:48.174Z,13.88
2018-05-14T03:56:17.844Z,13.90
2018-05-14T03:58:58.702Z,13.90
2018-05-14T04:01:39.285Z,13.93
2018-05-14T04:04:19.886Z,13.97
2018-05-14T04:06:49.280Z,14.00
2018-05-14T04:09:18.886Z,14.05
2018-05-14T04:11:50.189Z,14.11
2018-05-14T04:14:19.851Z,14.16
2018-05-14T04:16:49.476Z,14.18
2018-05-14T04:19:19.109Z,14.22
2018-05-14T04:21:48.756Z,14.28
2018-05-14T04:24:18.433Z,14.35
2018-05-14T04:26:48.104Z,14.40
2018-05-14T04:29:17.720Z,14.48
2018-05-14T04:31:47.333Z,14.58
2018-05-14T04:34:16.957Z,14.66
2018-05-14T04:36:46.633Z,14.76
2018-05-14T04:39:16.257Z,14.87
2018-05-14T04:41:45.883Z,14.95
2018-05-14T04:44:15.527Z,15.07
2018-05-14T04:46:45.143Z,15.28
2018-05-14T04:49:14.817Z,15.55
2018-05-14T04:51:44.456Z,15.71
2018-05-14T04:54:14.108Z,15.78
2018-05-14T04:56:43.744Z,16.15
2018-05-14T04:59:13.376Z,16.85
2018-05-14T05:01:43.150Z,17.65
2018-05-14T05:04:12.772Z,18.38
2018-05-14T05:06:42.435Z,19.22
2018-05-14T05:09:12.068Z,20.31
2018-05-14T05:11:41.701Z,21.35
2018-05-14T05:14:11.083Z,22.29
2018-05-14T05:16:40.709Z,23.22
2018-05-14T05:19:10.360Z,24.31
2018-05-14T05:21:39.976Z,24.63
2018-05-14T05:24:09.604Z,25.12
2018-05-14T05:26:39.266Z,24.99
2018-05-14T05:29:08.874Z,24.89
2018-05-14T05:31:38.494Z,25.31
2018-05-14T05:34:08.111Z,25.24
2018-05-14T05:36:37.730Z,24.96
2018-05-14T05:39:07.384Z,25.24
2018-05-14T05:41:37.020Z,25.13
2018-05-14T05:44:06.661Z,25.17
2018-05-14T05:46:36.287Z,24.92
2018-05-14T05:49:05.913Z,25.49
2018-05-14T05:51:35.584Z,26.20
2018-05-14T05:54:05.219Z,26.61
2018-05-14T05:56:34.858Z,26.37
2018-05-14T05:59:04.537Z,25.40
2018-05-14T06:01:34.163Z,24.85
2018-05-14T06:04:03.836Z,25.15
2018-05-14T06:06:33.481Z,25.89
2018-05-14T06:09:03.086Z,26.26
2018-05-14T06:11:32.426Z,26.84
2018-05-14T06:14:02.047Z,26.97
2018-05-14T06:16:31.697Z,27.63
2018-05-14T06:19:01.322Z,27.52
2018-05-14T06:21:31.040Z,28.07
2018-05-14T06:24:00.676Z,28.41
2018-05-14T06:26:30.327Z,29.00
2018-05-14T06:28:59.987Z,28.96
2018-05-14T06:31:29.600Z,28.02
2018-05-14T06:33:59.212Z,27.01
2018-05-14T06:36:28.606Z,27.17
2018-05-14T06:38:58.245Z,28.14
2018-05-14T06:41:27.916Z,29.04
2018-05-14T06:43:58.119Z,30.01
2018-05-14T06:46:28.398Z,30.57
2018-05-14T06:48:58.293Z,29.83
2018-05-14T06:51:28.552Z,29.22
2018-05-14T06:53:58.509Z,27.83
2018-05-14T06:56:28.207Z,28.20
2018-05-14T06:58:57.874Z,28.48
2018-05-14T07:01:28.080Z,28.17
2018-05-14T07:03:58.336Z,28.07
2018-05-14T07:06:28.526Z,28.32
2018-05-14T07:08:58.748Z,28.49
2018-05-14T07:11:29.013Z,28.70
2018-05-14T07:13:59.416Z,28.62
2018-05-14T07:16:29.666Z,29.31
2018-05-14T07:18:59.631Z,29.78
2018-05-14T07:21:29.860Z,30.47
2018-05-14T07:24:00.068Z,30.23
2018-05-14T07:26:30.435Z,29.50
2018-05-14T07:29:00.777Z,29.04
2018-05-14T07:31:30.983Z,29.66
2018-05-14T07:34:01.262Z,28.78
2018-05-14T07:36:31.467Z,27.49
2018-05-14T07:39:01.143Z,27.57
2018-05-14T07:41:31.082Z,27.78
2018-05-14T07:44:01.328Z,27.51
2018-05-14T07:46:31.535Z,27.34
2018-05-14T07:49:01.760Z,28.27
2018-05-14T07:51:31.982Z,28.11
2018-05-14T07:54:02.190Z,27.01
2018-05-14T07:56:31.873Z,26.51
2018-05-14T07:59:01.496Z,26.33
2018-05-14T08:01:31.750Z,27.11
2018-05-14T08:04:01.958Z,28.02
2018-05-14T08:06:32.147Z,28.54
2018-05-14T08:09:02.386Z,28.74
2018-05-14T08:11:32.380Z,29.10
2018-05-14T08:14:02.594Z,29.69
2018-05-14T08:16:32.455Z,29.13
2018-05-14T08:19:02.697Z,28.10
2018-05-14T08:21:32.947Z,26.16
2018-05-14T08:24:02.566Z,25.63
2018-05-14T08:26:32.178Z,25.95
2018-05-14T08:29:02.427Z,26.02
2018-05-14T08:31:32.078Z,25.90
2018-05-14T08:34:02.323Z,26.45
2018-05-14T08:36:31.944Z,27.87
2018-05-14T08:39:03.150Z,27.83
2018-05-14T08:41:32.790Z,26.68
2018-05-14T08:44:02.515Z,26.27
2018-05-14T08:46:32.126Z,25.78
2018-05-14T08:49:01.759Z,26.57
2018-05-14T08:51:32.010Z,26.48
2018-05-14T08:54:01.654Z,26.47
2018-05-14T08:56:31.320Z,26.21
2018-05-14T08:59:01.552Z,27.00
2018-05-14T09:01:31.773Z,26.49
2018-05-14T09:04:01.448Z,27.11
2018-05-14T09:06:31.679Z,26.96
2018-05-14T09:09:01.320Z,25.89
2018-05-14T09:11:30.655Z,24.41
2018-05-14T09:14:01.035Z,24.03
2018-05-14T09:16:31.266Z,23.25
2018-05-14T09:19:00.969Z,22.90
2018-05-14T09:21:30.612Z,22.80
2018-05-14T09:24:00.253Z,22.90
2018-05-14T09:26:29.900Z,23.02
2018-05-14T09:28:59.584Z,23.10
2018-05-14T09:31:29.206Z,23.20
2018-05-14T09:33:58.827Z,23.33
2018-05-14T09:36:28.453Z,23.34
2018-05-14T09:38:58.086Z,23.22
2018-05-14T09:41:27.742Z,23.14
2018-05-14T09:43:57.384Z,22.90
2018-05-14T09:46:27.026Z,22.99
2018-05-14T09:48:56.700Z,23.00
2018-05-14T09:51:26.330Z,23.23
2018-05-14T09:53:55.982Z,23.17
2018-05-14T09:56:25.819Z,23.32
2018-05-14T09:58:55.472Z,23.40
2018-05-14T10:01:25.167Z,23.43
2018-05-14T10:03:54.790Z,23.31
2018-05-14T10:06:24.413Z,23.20
2018-05-14T10:08:54.040Z,23.72
2018-05-14T10:11:23.667Z,24.07
2018-05-14T10:13:53.330Z,24.18
2018-05-14T10:16:22.941Z,24.00
2018-05-14T10:18:52.243Z,23.98
2018-05-14T10:21:21.874Z,23.88
2018-05-14T10:23:51.602Z,23.91
2018-05-14T10:26:21.262Z,23.98
2018-05-14T10:28:50.879Z,23.78
2018-05-14T10:31:20.504Z,23.40
2018-05-14T10:33:50.127Z,23.26
2018-05-14T10:36:19.738Z,23.46
2018-05-14T10:38:49.404Z,23.66
2018-05-14T10:41:19.029Z,23.45
2018-05-14T10:43:48.659Z,22.97
2018-05-14T10:46:18.373Z,22.94
2018-05-14T10:48:48.005Z,22.89
2018-05-14T10:51:17.673Z,23.23
2018-05-14T10:53:47.396Z,23.27
2018-05-14T10:56:17.058Z,23.26
2018-05-14T10:58:46.781Z,23.09
2018-05-14T11:01:16.588Z,23.17
2018-05-14T11:03:46.262Z,23.32
2018-05-14T11:06:15.887Z,23.59
2018-05-14T11:08:45.537Z,23.92
2018-05-14T11:11:15.161Z,23.79
2018-05-14T11:13:44.773Z,23.42
2018-05-14T11:16:14.430Z,23.27
2018-05-14T11:18:44.127Z,23.22
2018-05-14T11:21:13.997Z,23.23
2018-05-14T11:23:43.628Z,23.36
2018-05-14T11:26:13.253Z,23.44
2018-05-14T11:28:42.888Z,23.46
2018-05-14T11:31:12.545Z,23.62
2018-05-14T11:33:42.210Z,23.42
2018-05-14T11:36:11.822Z,23.30
2018-05-14T11:38:41.443Z,23.16
2018-05-14T11:41:11.062Z,23.03
2018-05-14T11:43:40.680Z,22.95
2018-05-14T11:46:10.334Z,22.93
2018-05-14T11:48:40.016Z,22.80
2018-05-14T11:51:09.682Z,22.78
2018-05-14T11:53:39.304Z,22.71
2018-05-14T11:56:08.990Z,22.69
2018-05-14T11:58:38.612Z,22.69
2018-05-14T12:01:08.264Z,22.56
2018-05-14T12:03:37.724Z,22.64
2018-05-14T12:06:07.348Z,22.47
2018-05-14T12:08:36.727Z,22.49
2018-05-14T12:11:06.357Z,22.51
2018-05-14T12:13:35.984Z,22.48
2018-05-14T12:16:05.743Z,22.39
2018-05-14T12:18:35.506Z,22.41
2018-05-14T12:21:05.137Z,22.47
2018-05-14T12:23:34.762Z,22.54
2018-05-14T12:26:04.374Z,22.80
2018-05-14T12:28:34.048Z,22.68
2018-05-14T12:31:03.663Z,22.55
2018-05-14T12:33:34.008Z,22.59
2018-05-14T12:36:03.394Z,22.53
2018-05-14T12:38:32.725Z,22.48
2018-05-14T12:41:02.167Z,22.43
2018-05-14T12:43:31.804Z,22.33
2018-05-14T12:46:01.486Z,22.34
2018-05-14T12:48:31.304Z,22.39
2018-05-14T12:51:00.923Z,22.48
2018-05-14T12:53:30.611Z,22.44
2018-05-14T12:56:00.247Z,22.39
2018-05-14T12:58:29.863Z,22.28
2018-05-14T13:00:59.552Z,22.19
2018-05-14T13:03:29.226Z,22.37
2018-05-14T13:05:58.384Z,22.43
2018-05-14T13:08:28.016Z,22.43
2018-05-14T13:10:57.659Z,22.52
2018-05-14T13:13:27.283Z,22.39
2018-05-14T13:15:56.914Z,22.25
2018-05-14T13:18:26.598Z,22.14
2018-05-14T13:20:56.226Z,22.12
2018-05-14T13:23:26.169Z,22.21
2018-05-14T13:25:55.796Z,22.30
2018-05-14T13:28:25.407Z,22.33
2018-05-14T13:30:55.090Z,22.44
2018-05-14T13:33:25.526Z,22.65
2018-05-14T13:35:55.222Z,22.91
2018-05-14T13:38:24.856Z,22.82
2018-05-14T13:40:54.476Z,22.92
2018-05-14T13:43:24.152Z,23.12
2018-05-14T13:45:53.779Z,23.16
2018-05-14T13:48:23.433Z,23.27
2018-05-14T13:50:53.135Z,23.22
2018-05-14T13:53:22.907Z,22.82
2018-05-14T13:55:52.566Z,22.39
2018-05-14T13:58:22.180Z,22.19
2018-05-14T14:00:52.688Z,22.19
2018-05-14T14:03:22.317Z,22.28
2018-05-14T14:05:51.956Z,22.41
2018-05-14T14:08:21.633Z,22.72
2018-05-14T14:10:51.266Z,22.99
2018-05-14T14:13:20.902Z,23.18
2018-05-14T14:15:51.127Z,23.11
2018-05-14T14:18:20.743Z,22.95
2018-05-14T14:20:50.400Z,22.85
2018-05-14T14:23:20.203Z,22.71
2018-05-14T14:25:49.913Z,22.53
2018-05-14T14:28:20.349Z,22.52
2018-05-14T14:30:49.958Z,22.37
2018-05-14T14:33:19.648Z,22.17
2018-05-14T14:35:49.304Z,22.07
2018-05-14T14:38:19.159Z,22.11
2018-05-14T14:40:48.810Z,22.08
2018-05-14T14:43:19.303Z,22.05
2018-05-14T14:45:48.923Z,22.18
2018-05-14T14:48:18.577Z,22.21
2018-05-14T14:50:49.119Z,22.16
2018-05-14T14:53:18.731Z,22.05
2018-05-14T14:55:48.346Z,22.05
2018-05-14T14:58:18.054Z,21.88
2018-05-14T15:00:47.821Z,21.78
2018-05-14T15:03:17.489Z,21.77
2018-05-14T15:05:47.117Z,21.66
2018-05-14T15:08:16.744Z,21.56
2018-05-14T15:10:46.404Z,21.48
2018-05-14T15:13:16.041Z,21.51
2018-05-14T15:15:45.736Z,21.56
2018-05-14T15:18:15.359Z,21.54
2018-05-14T15:20:45.023Z,21.51
2018-05-14T15:23:14.643Z,21.66
2018-05-14T15:25:44.273Z,21.78
2018-05-14T15:28:13.933Z,21.68
2018-05-14T15:30:43.580Z,21.58
2018-05-14T15:33:13.238Z,21.50
2018-05-14T15:35:42.856Z,21.39
2018-05-14T15:38:12.480Z,21.47
2018-05-14T15:40:42.156Z,21.48
2018-05-14T15:43:11.796Z,21.38
2018-05-14T15:45:41.457Z,21.30
2018-05-14T15:48:11.094Z,21.17
2018-05-14T15:50:40.731Z,20.93
2018-05-14T15:53:10.404Z,20.72
2018-05-14T15:55:40.025Z,20.53
2018-05-14T15:58:09.651Z,20.34
2018-05-14T16:00:39.283Z,20.18
2018-05-14T16:03:08.908Z,20.09
2018-05-14T16:05:38.574Z,19.97
2018-05-14T16:08:08.249Z,19.93
2018-05-14T16:10:38.086Z,19.93
2018-05-14T16:13:07.733Z,19.94
2018-05-14T16:15:37.361Z,20.01
2018-05-14T16:18:07.011Z,20.11
2018-05-14T16:20:36.648Z,20.20
2018-05-14T16:23:06.311Z,20.28
2018-05-14T16:25:35.948Z,20.32
2018-05-14T16:28:05.596Z,20.34
2018-05-14T16:30:35.216Z,20.37
2018-05-14T16:33:04.841Z,20.37
2018-05-14T16:35:34.511Z,20.36
2018-05-14T16:38:03.905Z,20.35
2018-05-14T16:40:33.524Z,20.31
2018-05-14T16:43:03.163Z,20.27
2018-05-14T16:45:32.787Z,20.26
2018-05-14T16:48:02.488Z,20.21
2018-05-14T16:50:32.111Z,20.17
2018-05-14T16:53:01.747Z,20.12
2018-05-14T16:55:31.365Z,20.05
2018-05-14T16:58:01.029Z,19.99
2018-05-14T17:00:30.879Z,19.92
2018-05-14T17:03:00.507Z,19.91
2018-05-14T17:05:30.119Z,19.89
2018-05-14T17:07:59.964Z,19.88
2018-05-14T17:10:29.622Z,19.82
2018-05-14T17:12:59.486Z,19.76
2018-05-14T17:15:29.102Z,19.73
2018-05-14T17:17:58.744Z,19.67
2018-05-14T17:20:28.368Z,19.60
2018-05-14T17:22:58.021Z,19.54
2018-05-14T17:25:27.696Z,19.48
2018-05-14T17:27:57.322Z,19.46
2018-05-14T17:30:26.963Z,19.41
2018-05-14T17:32:56.578Z,19.35
2018-05-14T17:35:25.870Z,19.28
2018-05-14T17:37:55.535Z,19.20
2018-05-14T17:40:25.172Z,19.18
2018-05-14T17:42:54.789Z,19.10
2018-05-14T17:45:24.405Z,19.05
2018-05-14T17:47:54.037Z,18.99
2018-05-14T17:50:23.687Z,18.88
2018-05-14T17:52:53.626Z,18.78
2018-05-14T17:55:23.411Z,18.68
2018-05-14T17:57:53.084Z,18.56
2018-05-14T18:00:22.719Z,18.47
2018-05-14T18:02:52.375Z,18.38
2018-05-14T18:05:22.093Z,18.22
2018-05-14T18:07:51.870Z,18.13
2018-05-14T18:10:21.486Z,18.08
2018-05-14T18:12:51.103Z,17.99
2018-05-14T18:15:20.766Z,17.91
2018-05-14T18:17:50.434Z,17.80
2018-05-14T18:20:26.214Z,17.74
2018-05-14T18:22:55.841Z,17.63
2018-05-14T18:25:30.760Z,17.55
2018-05-14T18:28:11.876Z,17.47
2018-05-14T18:30:41.307Z,17.37
2018-05-14T18:33:11.854Z,17.35
2018-05-14T18:35:46.547Z,17.22
2018-05-14T18:38:16.173Z,17.10
2018-05-14T18:40:45.822Z,17.05
2018-05-14T18:43:15.451Z,17.00
2018-05-14T18:45:45.085Z,16.89
2018-05-14T18:48:14.752Z,16.79
2018-05-14T18:50:44.373Z,16.66
2018-05-14T18:53:14.016Z,16.61
2018-05-14T18:55:43.634Z,16.56
2018-05-14T18:58:13.264Z,16.52
2018-05-14T19:00:42.688Z,16.47
2018-05-14T19:03:12.319Z,16.44
2018-05-14T19:05:41.940Z,16.49
2018-05-14T19:08:11.560Z,16.46
2018-05-14T19:10:46.663Z,16.42
2018-05-14T19:13:16.303Z,16.35
2018-05-14T19:15:51.183Z,16.28
2018-05-14T19:18:20.825Z,16.24
2018-05-14T19:20:50.445Z,16.21
2018-05-14T19:23:25.458Z,16.21
2018-05-14T19:25:55.083Z,16.10
2018-05-14T19:28:30.164Z,15.88
2018-05-14T19:30:59.792Z,15.82
2018-05-14T19:33:34.863Z,15.74
2018-05-14T19:36:04.372Z,15.69
2018-05-14T19:38:34.212Z,15.61
2018-05-14T19:41:03.838Z,15.58
2018-05-14T19:43:33.239Z,15.58
2018-05-14T19:46:02.855Z,15.57
2018-05-14T19:48:32.471Z,15.49
2018-05-14T19:51:01.935Z,15.49
2018-05-14T19:53:31.743Z,15.44
2018-05-14T19:56:01.402Z,15.47
2018-05-14T19:58:31.023Z,15.48
2018-05-14T20:01:00.789Z,15.56
2018-05-14T20:03:30.639Z,15.55
2018-05-14T20:06:00.460Z,15.52
2018-05-14T20:08:30.100Z,15.43
2018-05-14T20:10:59.724Z,15.27
2018-05-14T20:13:29.383Z,15.11
2018-05-14T20:15:59.061Z,15.02
2018-05-14T20:18:28.682Z,14.83
2018-05-14T20:20:58.312Z,14.78
2018-05-14T20:23:28.000Z,14.69
2018-05-14T20:25:57.628Z,14.57
2018-05-14T20:28:27.296Z,14.63
2018-05-14T20:30:56.921Z,14.66
2018-05-14T20:33:26.552Z,14.66
2018-05-14T20:35:55.915Z,14.69
2018-05-14T20:38:25.532Z,14.65
2018-05-14T20:40:55.212Z,14.61
2018-05-14T20:43:24.839Z,14.53
2018-05-14T20:45:54.507Z,14.45
2018-05-14T20:48:24.122Z,14.41
2018-05-14T20:50:53.730Z,14.36
2018-05-14T20:53:23.420Z,14.27
2018-05-14T20:55:53.035Z,14.22
2018-05-14T20:58:22.671Z,14.19
2018-05-14T21:00:52.288Z,14.12
2018-05-14T21:03:21.918Z,14.09
2018-05-14T21:05:51.579Z,14.05
2018-05-14T21:08:21.210Z,14.02
2018-05-14T21:10:50.872Z,14.04
2018-05-14T21:13:20.519Z,14.00
2018-05-14T21:15:50.134Z,13.97
2018-05-14T21:18:19.827Z,13.75
2018-05-14T21:20:49.454Z,13.64
2018-05-14T21:23:19.079Z,13.65
2018-05-14T21:25:48.712Z,13.66
2018-05-14T21:28:18.334Z,13.58
2018-05-14T21:30:48.006Z,13.56
2018-05-14T21:33:17.348Z,13.50
2018-05-14T21:35:46.966Z,13.42
2018-05-14T21:38:16.606Z,13.31
2018-05-14T21:40:46.238Z,13.18
2018-05-14T21:43:15.894Z,13.08
2018-05-14T21:45:45.515Z,12.98
2018-05-14T21:48:15.136Z,12.97
2018-05-14T21:50:44.754Z,13.02
2018-05-14T21:53:14.121Z,12.99
2018-05-14T21:55:43.780Z,13.00
2018-05-14T21:58:13.405Z,12.88
2018-05-14T22:00:42.752Z,12.94
2018-05-14T22:03:12.100Z,12.99
2018-05-14T22:05:51.070Z,12.95
2018-05-14T22:08:20.404Z,12.85
2018-05-14T22:10:50.016Z,12.99
2018-05-14T22:13:19.414Z,13.07
2018-05-14T22:15:49.028Z,12.99
2018-05-14T22:18:18.393Z,12.96
2018-05-14T22:20:48.057Z,12.95
2018-05-14T22:23:17.669Z,12.89
2018-05-14T22:25:47.329Z,12.85
2018-05-14T22:28:16.695Z,12.79
2018-05-14T22:30:46.319Z,12.69
2018-05-14T22:33:15.927Z,12.59
2018-05-14T22:35:45.288Z,12.50
2018-05-14T22:38:14.970Z,12.42
2018-05-14T22:40:44.586Z,12.33
2018-05-14T22:43:14.202Z,12.38
2018-05-14T22:45:43.828Z,12.35
2018-05-14T22:48:13.462Z,12.33
2018-05-14T22:50:43.117Z,12.24
2018-05-14T22:53:12.739Z,12.24
2018-05-14T22:55:42.355Z,12.27
2018-05-14T22:58:11.974Z,12.37
2018-05-14T23:00:41.590Z,12.38
2018-05-14T23:03:11.058Z,12.33
2018-05-14T23:05:40.671Z,12.29
2018-05-14T23:08:10.294Z,12.18
2018-05-14T23:10:40.151Z,12.08
2018-05-14T23:13:09.768Z,12.02
2018-05-14T23:15:39.433Z,12.15
2018-05-14T23:18:09.067Z,12.19
2018-05-14T23:20:38.688Z,12.24
2018-05-14T23:23:08.310Z,12.21
2018-05-14T23:25:37.936Z,12.20
2018-05-14T23:28:07.585Z,12.15
2018-05-14T23:30:37.196Z,11.91
2018-05-14T23:33:06.488Z,11.94
2018-05-14T23:35:36.114Z,11.95
2018-05-14T23:38:05.738Z,11.99
2018-05-14T23:40:35.412Z,12.04
2018-05-14T23:43:05.030Z,11.99
2018-05-14T23:45:34.643Z,12.01
2018-05-14T23:48:04.271Z,12.02
2018-05-14T23:50:33.878Z,11.95
2018-05-14T23:53:03.539Z,11.90
2018-05-14T23:55:33.166Z,11.87
2018-05-14T23:58:02.829Z,11.76
